createdAt,value
2019-03-17T00:00:09.946Z,10.122375
2019-03-17T00:00:21.677Z,10.102234
2019-03-17T00:00:33.446Z,10.142517
2019-03-17T00:00:45.325Z,10.142517
2019-03-17T00:00:57.083Z,10.122375
2019-03-17T00:01:08.849Z,10.142517
2019-03-17T00:01:20.602Z,10.142517
2019-03-17T00:01:32.373Z,10.172729
2019-03-17T00:01:44.134Z,10.172729
2019-03-17T00:01:57.901Z,10.172729
2019-03-17T00:02:08.614Z,10.172729
2019-03-17T00:02:20.360Z,10.172729
2019-03-17T00:02:32.152Z,10.172729
2019-03-17T00:02:43.954Z,10.172729
2019-03-17T00:02:55.705Z,10.172729
2019-03-17T00:03:07.485Z,10.172729
2019-03-17T00:03:19.251Z,10.152588
2019-03-17T00:03:31.021Z,10.152588
2019-03-17T00:03:42.801Z,10.152588
2019-03-17T00:03:54.544Z,10.152588
2019-03-17T00:04:06.308Z,10.142517
2019-03-17T00:04:18.105Z,10.152588
2019-03-17T00:04:31.840Z,10.152588
2019-03-17T00:04:42.603Z,10.152588
2019-03-17T00:04:54.408Z,10.142517
2019-03-17T00:05:06.213Z,10.142517
2019-03-17T00:05:17.955Z,10.142517
2019-03-17T00:05:29.742Z,10.122375
2019-03-17T00:05:41.491Z,10.122375
2019-03-17T00:05:53.393Z,10.122375
2019-03-17T00:06:07.702Z,10.122375
2019-03-17T00:06:16.953Z,10.122375
2019-03-17T00:06:28.734Z,10.122375
2019-03-17T00:06:40.482Z,10.142517
2019-03-17T00:06:52.248Z,10.142517
2019-03-17T00:07:03.989Z,10.152588
2019-03-17T00:07:15.775Z,10.142517
2019-03-17T00:07:27.551Z,10.142517
2019-03-17T00:07:39.315Z,10.152588
2019-03-17T00:07:51.100Z,10.152588
2019-03-17T00:08:02.876Z,10.142517
2019-03-17T00:08:14.625Z,10.142517
2019-03-17T00:08:26.378Z,10.152588
2019-03-17T00:08:38.131Z,10.152588
2019-03-17T00:08:49.906Z,10.152588
2019-03-17T00:09:01.689Z,10.152588
2019-03-17T00:09:13.474Z,10.142517
2019-03-17T00:09:25.275Z,10.142517
2019-03-17T00:09:37.040Z,10.142517
2019-03-17T00:09:48.808Z,10.122375
2019-03-17T00:10:00.602Z,10.142517
2019-03-17T00:10:12.356Z,10.142517
2019-03-17T00:10:24.132Z,10.142517
2019-03-17T00:10:35.903Z,10.122375
2019-03-17T00:10:47.677Z,10.122375
2019-03-17T00:10:59.458Z,10.122375
2019-03-17T00:11:11.232Z,10.122375
2019-03-17T00:11:22.991Z,10.122375
2019-03-17T00:11:34.769Z,10.122375
2019-03-17T00:11:46.552Z,10.122375
2019-03-17T00:11:58.332Z,10.122375
2019-03-17T00:12:10.120Z,10.102234
2019-03-17T00:12:21.868Z,10.102234
2019-03-17T00:12:33.645Z,10.102234
2019-03-17T00:12:45.402Z,10.122375
2019-03-17T00:12:57.191Z,10.102234
2019-03-17T00:13:08.959Z,10.102234
2019-03-17T00:13:20.700Z,10.142517
2019-03-17T00:13:32.470Z,10.122375
2019-03-17T00:13:44.243Z,10.142517
2019-03-17T00:13:55.995Z,10.122375
2019-03-17T00:14:07.796Z,10.122375
2019-03-17T00:14:19.567Z,10.122375
2019-03-17T00:14:31.335Z,10.102234
2019-03-17T00:14:43.133Z,10.122375
2019-03-17T00:15:04.912Z,10.122375
2019-03-17T00:15:07.619Z,10.122375
2019-03-17T00:15:19.372Z,10.122375
2019-03-17T00:15:31.158Z,10.122375
2019-03-17T00:15:42.921Z,10.122375
2019-03-17T00:15:54.699Z,10.142517
2019-03-17T00:16:06.483Z,10.122375
2019-03-17T00:16:18.278Z,10.122375
2019-03-17T00:16:30.027Z,10.122375
2019-03-17T00:16:41.788Z,10.122375
2019-03-17T00:16:53.576Z,10.122375
2019-03-17T00:17:05.350Z,10.122375
2019-03-17T00:17:17.119Z,10.122375
2019-03-17T00:17:28.901Z,10.102234
2019-03-17T00:17:42.026Z,10.102234
2019-03-17T00:17:53.395Z,10.092163
2019-03-17T00:18:05.168Z,10.102234
2019-03-17T00:18:16.946Z,10.092163
2019-03-17T00:18:28.739Z,10.102234
2019-03-17T00:18:40.515Z,10.092163
2019-03-17T00:18:52.248Z,10.092163
2019-03-17T00:19:04.043Z,10.102234
2019-03-17T00:19:15.840Z,10.092163
2019-03-17T00:19:28.596Z,10.102234
2019-03-17T00:19:40.366Z,10.122375
2019-03-17T00:19:52.128Z,10.122375
2019-03-17T00:20:03.881Z,10.122375
2019-03-17T00:20:15.644Z,10.142517
2019-03-17T00:20:27.417Z,10.152588
2019-03-17T00:20:39.222Z,10.152588
2019-03-17T00:20:50.984Z,10.172729
2019-03-17T00:21:02.739Z,10.1828
2019-03-17T00:21:14.547Z,10.1828
2019-03-17T00:21:26.326Z,10.192871
2019-03-17T00:21:38.101Z,10.1828
2019-03-17T00:21:49.877Z,10.192871
2019-03-17T00:22:01.641Z,10.192871
2019-03-17T00:22:13.382Z,10.192871
2019-03-17T00:22:25.129Z,10.213013
2019-03-17T00:22:36.929Z,10.1828
2019-03-17T00:22:48.678Z,10.192871
2019-03-17T00:23:00.437Z,10.1828
2019-03-17T00:23:12.199Z,10.192871
2019-03-17T00:23:23.987Z,10.1828
2019-03-17T00:23:35.770Z,10.192871
2019-03-17T00:23:47.549Z,10.192871
2019-03-17T00:23:59.306Z,10.192871
2019-03-17T00:24:11.089Z,10.1828
2019-03-17T00:24:22.885Z,10.192871
2019-03-17T00:24:34.632Z,10.213013
2019-03-17T00:24:46.403Z,10.213013
2019-03-17T00:25:08.413Z,10.213013
2019-03-17T00:25:10.903Z,10.223083
2019-03-17T00:25:22.675Z,10.243225
2019-03-17T00:25:34.421Z,10.243225
2019-03-17T00:25:46.209Z,10.253296
2019-03-17T00:25:57.970Z,10.243225
2019-03-17T00:26:09.721Z,10.243225
2019-03-17T00:26:21.489Z,10.243225
2019-03-17T00:26:33.269Z,10.223083
2019-03-17T00:26:45.047Z,10.243225
2019-03-17T00:26:56.835Z,10.253296
2019-03-17T00:27:08.580Z,10.253296
2019-03-17T00:27:20.359Z,10.253296
2019-03-17T00:27:32.110Z,10.263367
2019-03-17T00:27:43.867Z,10.263367
2019-03-17T00:27:55.644Z,10.253296
2019-03-17T00:28:07.475Z,10.253296
2019-03-17T00:28:19.151Z,10.253296
2019-03-17T00:28:30.961Z,10.243225
2019-03-17T00:28:44.441Z,10.243225
2019-03-17T00:28:55.473Z,10.223083
2019-03-17T00:29:07.235Z,10.243225
2019-03-17T00:29:19.009Z,10.223083
2019-03-17T00:29:30.775Z,10.213013
2019-03-17T00:29:42.539Z,10.213013
2019-03-17T00:29:54.281Z,10.213013
2019-03-17T00:30:06.078Z,10.192871
2019-03-17T00:30:17.839Z,10.192871
2019-03-17T00:30:29.623Z,10.192871
2019-03-17T00:30:41.379Z,10.213013
2019-03-17T00:30:53.133Z,10.1828
2019-03-17T00:31:04.904Z,10.1828
2019-03-17T00:31:23.502Z,10.192871
2019-03-17T00:31:29.415Z,10.192871
2019-03-17T00:31:41.200Z,10.192871
2019-03-17T00:31:52.956Z,10.192871
2019-03-17T00:32:04.753Z,10.1828
2019-03-17T00:32:16.499Z,10.192871
2019-03-17T00:32:28.259Z,10.1828
2019-03-17T00:32:40.025Z,10.1828
2019-03-17T00:32:51.762Z,10.1828
2019-03-17T00:33:03.519Z,10.1828
2019-03-17T00:33:15.269Z,10.1828
2019-03-17T00:33:27.033Z,10.192871
2019-03-17T00:33:38.766Z,10.1828
2019-03-17T00:33:50.527Z,10.1828
2019-03-17T00:34:02.311Z,10.1828
2019-03-17T00:34:14.067Z,10.172729
2019-03-17T00:34:25.876Z,10.172729
2019-03-17T00:34:43.855Z,10.172729
2019-03-17T00:34:51.348Z,10.172729
2019-03-17T00:35:03.127Z,10.152588
2019-03-17T00:35:20.739Z,10.152588
2019-03-17T00:35:32.510Z,10.142517
2019-03-17T00:35:44.265Z,10.142517
2019-03-17T00:35:56.051Z,10.142517
2019-03-17T00:36:07.815Z,10.122375
2019-03-17T00:36:19.583Z,10.142517
2019-03-17T00:36:31.415Z,10.142517
2019-03-17T00:36:43.161Z,10.152588
2019-03-17T00:36:54.934Z,10.152588
2019-03-17T00:37:06.694Z,10.152588
2019-03-17T00:37:18.462Z,10.172729
2019-03-17T00:37:30.255Z,10.152588
2019-03-17T00:37:42.026Z,10.172729
2019-03-17T00:37:53.760Z,10.172729
2019-03-17T00:38:05.536Z,10.172729
2019-03-17T00:38:17.285Z,10.172729
2019-03-17T00:38:29.055Z,10.1828
2019-03-17T00:38:40.850Z,10.1828
2019-03-17T00:38:52.610Z,10.1828
2019-03-17T00:39:04.379Z,10.1828
2019-03-17T00:39:16.137Z,10.1828
2019-03-17T00:39:27.888Z,10.172729
2019-03-17T00:39:39.671Z,10.1828
2019-03-17T00:39:51.413Z,10.172729
2019-03-17T00:40:03.192Z,10.1828
2019-03-17T00:40:14.944Z,10.172729
2019-03-17T00:40:26.719Z,10.172729
2019-03-17T00:40:38.469Z,10.172729
2019-03-17T00:40:50.241Z,10.1828
2019-03-17T00:41:02.028Z,10.192871
2019-03-17T00:41:13.786Z,10.192871
2019-03-17T00:41:25.557Z,10.192871
2019-03-17T00:41:37.327Z,10.213013
2019-03-17T00:41:49.090Z,10.223083
2019-03-17T00:42:00.866Z,10.213013
2019-03-17T00:42:12.616Z,10.213013
2019-03-17T00:42:24.370Z,10.192871
2019-03-17T00:42:36.147Z,10.213013
2019-03-17T00:42:47.899Z,10.213013
2019-03-17T00:42:59.654Z,10.192871
2019-03-17T00:43:11.417Z,10.192871
2019-03-17T00:43:23.249Z,10.1828
2019-03-17T00:43:35.031Z,10.192871
2019-03-17T00:43:46.807Z,10.1828
2019-03-17T00:43:58.593Z,10.1828
2019-03-17T00:44:10.339Z,10.1828
2019-03-17T00:44:22.116Z,10.1828
2019-03-17T00:44:33.910Z,10.1828
2019-03-17T00:44:45.693Z,10.192871
2019-03-17T00:44:57.451Z,10.192871
2019-03-17T00:45:11.446Z,10.1828
2019-03-17T00:45:20.938Z,10.1828
2019-03-17T00:45:32.726Z,10.192871
2019-03-17T00:45:44.507Z,10.213013
2019-03-17T00:45:56.264Z,10.213013
2019-03-17T00:46:08.057Z,10.192871
2019-03-17T00:46:19.838Z,10.213013
2019-03-17T00:46:31.612Z,10.213013
2019-03-17T00:46:43.390Z,10.223083
2019-03-17T00:46:55.169Z,10.223083
2019-03-17T00:47:06.983Z,10.223083
2019-03-17T00:47:18.719Z,10.213013
2019-03-17T00:47:30.497Z,10.213013
2019-03-17T00:47:42.270Z,10.192871
2019-03-17T00:47:54.038Z,10.213013
2019-03-17T00:48:05.828Z,10.213013
2019-03-17T00:48:17.585Z,10.213013
2019-03-17T00:48:29.388Z,10.213013
2019-03-17T00:48:41.128Z,10.213013
2019-03-17T00:48:52.881Z,10.192871
2019-03-17T00:49:04.622Z,10.213013
2019-03-17T00:49:16.379Z,10.192871
2019-03-17T00:49:28.138Z,10.213013
2019-03-17T00:49:39.895Z,10.192871
2019-03-17T00:49:51.658Z,10.1828
2019-03-17T00:50:03.401Z,10.1828
2019-03-17T00:50:15.147Z,10.192871
2019-03-17T00:50:26.903Z,10.192871
2019-03-17T00:50:38.661Z,10.1828
2019-03-17T00:50:50.435Z,10.192871
2019-03-17T00:51:02.187Z,10.213013
2019-03-17T00:51:13.945Z,10.1828
2019-03-17T00:51:25.711Z,10.192871
2019-03-17T00:51:37.464Z,10.192871
2019-03-17T00:51:49.236Z,10.213013
2019-03-17T00:52:01.007Z,10.192871
2019-03-17T00:52:12.793Z,10.192871
2019-03-17T00:52:24.563Z,10.223083
2019-03-17T00:52:36.363Z,10.192871
2019-03-17T00:52:48.166Z,10.213013
2019-03-17T00:52:59.966Z,10.192871
2019-03-17T00:53:11.756Z,10.213013
2019-03-17T00:53:23.555Z,10.192871
2019-03-17T00:53:35.381Z,10.213013
2019-03-17T00:53:47.165Z,10.192871
2019-03-17T00:53:58.911Z,10.213013
2019-03-17T00:54:10.676Z,10.1828
2019-03-17T00:54:22.458Z,10.192871
2019-03-17T00:54:34.231Z,10.213013
2019-03-17T00:54:45.989Z,10.192871
2019-03-17T00:54:57.775Z,10.192871
2019-03-17T00:55:09.517Z,10.213013
2019-03-17T00:55:21.293Z,10.192871
2019-03-17T00:55:33.088Z,10.213013
2019-03-17T00:55:44.885Z,10.213013
2019-03-17T00:55:56.655Z,10.213013
2019-03-17T00:56:08.434Z,10.192871
2019-03-17T00:56:20.217Z,10.1828
2019-03-17T00:56:31.957Z,10.192871
2019-03-17T00:56:44.725Z,10.192871
2019-03-17T00:56:56.506Z,10.192871
2019-03-17T00:57:08.265Z,10.192871
2019-03-17T00:57:20.055Z,10.1828
2019-03-17T00:57:31.814Z,10.192871
2019-03-17T00:57:43.567Z,10.192871
2019-03-17T00:57:55.351Z,10.192871
2019-03-17T00:58:07.098Z,10.192871
2019-03-17T00:58:18.867Z,10.1828
2019-03-17T00:58:30.680Z,10.1828
2019-03-17T00:58:42.451Z,10.192871
2019-03-17T00:58:54.227Z,10.1828
2019-03-17T00:59:05.977Z,10.1828
2019-03-17T00:59:17.726Z,10.172729
2019-03-17T00:59:29.491Z,10.1828
2019-03-17T00:59:41.273Z,10.1828
2019-03-17T00:59:53.018Z,10.172729
2019-03-17T01:00:04.779Z,10.172729
2019-03-17T01:00:16.533Z,10.172729
2019-03-17T01:00:28.298Z,10.172729
2019-03-17T01:00:40.043Z,10.152588
2019-03-17T01:00:51.804Z,10.152588
2019-03-17T01:01:03.556Z,10.152588
2019-03-17T01:01:15.315Z,10.142517
2019-03-17T01:01:27.091Z,10.152588
2019-03-17T01:01:38.840Z,10.142517
2019-03-17T01:01:50.604Z,10.122375
2019-03-17T01:02:02.365Z,10.122375
2019-03-17T01:02:14.106Z,10.142517
2019-03-17T01:02:25.883Z,10.142517
2019-03-17T01:02:37.658Z,10.142517
2019-03-17T01:02:49.423Z,10.122375
2019-03-17T01:03:01.198Z,10.142517
2019-03-17T01:03:12.981Z,10.142517
2019-03-17T01:03:24.758Z,10.142517
2019-03-17T01:03:36.563Z,10.122375
2019-03-17T01:03:48.317Z,10.142517
2019-03-17T01:04:00.101Z,10.142517
2019-03-17T01:04:11.872Z,10.142517
2019-03-17T01:04:23.638Z,10.142517
2019-03-17T01:04:35.389Z,10.122375
2019-03-17T01:04:55.948Z,10.142517
2019-03-17T01:04:59.878Z,10.142517
2019-03-17T01:05:11.647Z,10.122375
2019-03-17T01:05:23.459Z,10.122375
2019-03-17T01:05:35.221Z,10.122375
2019-03-17T01:05:47.001Z,10.122375
2019-03-17T01:05:58.770Z,10.122375
2019-03-17T01:06:10.543Z,10.122375
2019-03-17T01:06:22.283Z,10.102234
2019-03-17T01:06:34.062Z,10.122375
2019-03-17T01:06:45.845Z,10.102234
2019-03-17T01:06:57.623Z,10.102234
2019-03-17T01:07:09.395Z,10.102234
2019-03-17T01:07:21.150Z,10.122375
2019-03-17T01:07:32.920Z,10.102234
2019-03-17T01:07:44.679Z,10.122375
2019-03-17T01:07:56.433Z,10.102234
2019-03-17T01:08:08.163Z,10.122375
2019-03-17T01:08:19.910Z,10.102234
2019-03-17T01:08:31.720Z,10.122375
2019-03-17T01:08:43.495Z,10.102234
2019-03-17T01:08:55.275Z,10.102234
2019-03-17T01:09:07.036Z,10.102234
2019-03-17T01:09:18.822Z,10.102234
2019-03-17T01:09:30.612Z,10.102234
2019-03-17T01:09:42.413Z,10.102234
2019-03-17T01:09:54.174Z,10.092163
2019-03-17T01:10:05.918Z,10.092163
2019-03-17T01:10:17.751Z,10.102234
2019-03-17T01:10:29.527Z,10.072021
2019-03-17T01:10:41.306Z,10.092163
2019-03-17T01:10:53.050Z,10.072021
2019-03-17T01:11:04.839Z,10.092163
2019-03-17T01:11:16.607Z,10.061951
2019-03-17T01:11:28.383Z,10.072021
2019-03-17T01:11:40.154Z,10.072021
2019-03-17T01:11:51.919Z,10.092163
2019-03-17T01:12:04.676Z,10.072021
2019-03-17T01:12:16.424Z,10.072021
2019-03-17T01:12:28.191Z,10.061951
2019-03-17T01:12:39.981Z,10.061951
2019-03-17T01:12:51.738Z,10.061951
2019-03-17T01:13:03.503Z,10.041809
2019-03-17T01:13:15.253Z,10.041809
2019-03-17T01:13:27.043Z,10.041809
2019-03-17T01:13:38.818Z,10.031738
2019-03-17T01:13:50.619Z,10.041809
2019-03-17T01:14:02.412Z,10.031738
2019-03-17T01:14:14.167Z,10.031738
2019-03-17T01:14:25.946Z,10.011597
2019-03-17T01:14:37.728Z,10.011597
2019-03-17T01:14:49.531Z,10.031738
2019-03-17T01:15:01.290Z,10.011597
2019-03-17T01:15:13.054Z,10.001526
2019-03-17T01:15:24.828Z,10.001526
2019-03-17T01:15:36.587Z,10.001526
2019-03-17T01:15:48.387Z,10.001526
2019-03-17T01:16:00.139Z,9.991455
2019-03-17T01:16:11.907Z,10.001526
2019-03-17T01:16:23.662Z,10.001526
2019-03-17T01:16:35.415Z,10.001526
2019-03-17T01:16:47.160Z,9.991455
2019-03-17T01:16:58.952Z,10.001526
2019-03-17T01:17:10.708Z,10.001526
2019-03-17T01:17:22.514Z,10.001526
2019-03-17T01:17:34.304Z,10.001526
2019-03-17T01:17:46.081Z,10.001526
2019-03-17T01:17:57.828Z,10.001526
2019-03-17T01:18:09.577Z,10.001526
2019-03-17T01:18:21.382Z,10.011597
2019-03-17T01:18:33.172Z,10.011597
2019-03-17T01:18:44.945Z,10.011597
2019-03-17T01:18:56.702Z,10.001526
2019-03-17T01:19:08.461Z,10.001526
2019-03-17T01:19:20.217Z,10.011597
2019-03-17T01:19:31.991Z,10.011597
2019-03-17T01:19:43.779Z,10.011597
2019-03-17T01:19:55.693Z,10.011597
2019-03-17T01:20:07.473Z,10.031738
2019-03-17T01:20:19.237Z,10.031738
2019-03-17T01:20:31.003Z,10.031738
2019-03-17T01:20:42.792Z,10.011597
2019-03-17T01:20:54.573Z,10.011597
2019-03-17T01:21:06.328Z,10.011597
2019-03-17T01:21:19.101Z,10.011597
2019-03-17T01:21:30.840Z,10.031738
2019-03-17T01:21:42.613Z,10.031738
2019-03-17T01:21:54.404Z,10.031738
2019-03-17T01:22:06.146Z,10.031738
2019-03-17T01:22:17.923Z,10.031738
2019-03-17T01:22:29.696Z,10.041809
2019-03-17T01:22:41.446Z,10.041809
2019-03-17T01:22:53.244Z,10.041809
2019-03-17T01:23:05.023Z,10.041809
2019-03-17T01:23:16.796Z,10.041809
2019-03-17T01:23:28.553Z,10.031738
2019-03-17T01:23:40.320Z,10.031738
2019-03-17T01:23:52.079Z,10.041809
2019-03-17T01:24:03.860Z,10.031738
2019-03-17T01:24:15.628Z,10.031738
2019-03-17T01:24:27.354Z,10.031738
2019-03-17T01:24:39.093Z,10.031738
2019-03-17T01:24:50.881Z,10.031738
2019-03-17T01:25:02.631Z,10.031738
2019-03-17T01:25:14.394Z,10.011597
2019-03-17T01:25:26.201Z,10.011597
2019-03-17T01:25:37.966Z,10.031738
2019-03-17T01:25:49.725Z,10.031738
2019-03-17T01:26:01.505Z,10.031738
2019-03-17T01:26:13.295Z,10.031738
2019-03-17T01:26:25.028Z,10.031738
2019-03-17T01:26:36.810Z,10.031738
2019-03-17T01:26:48.592Z,10.031738
2019-03-17T01:27:00.386Z,10.031738
2019-03-17T01:27:12.142Z,10.011597
2019-03-17T01:27:23.905Z,10.011597
2019-03-17T01:27:35.699Z,10.011597
2019-03-17T01:27:47.490Z,10.031738
2019-03-17T01:27:59.252Z,10.011597
2019-03-17T01:28:11.026Z,10.001526
2019-03-17T01:28:22.795Z,10.001526
2019-03-17T01:28:34.565Z,10.001526
2019-03-17T01:28:46.346Z,9.991455
2019-03-17T01:28:58.131Z,9.991455
2019-03-17T01:29:09.926Z,9.971313
2019-03-17T01:29:21.681Z,9.971313
2019-03-17T01:29:33.434Z,9.971313
2019-03-17T01:29:45.192Z,9.971313
2019-03-17T01:29:57.963Z,9.971313
2019-03-17T01:30:09.721Z,9.991455
2019-03-17T01:30:21.498Z,9.971313
2019-03-17T01:30:33.249Z,9.971313
2019-03-17T01:30:45.053Z,9.961243
2019-03-17T01:30:56.818Z,9.961243
2019-03-17T01:31:08.626Z,9.941101
2019-03-17T01:31:20.398Z,9.961243
2019-03-17T01:31:32.190Z,9.961243
2019-03-17T01:31:44.031Z,9.961243
2019-03-17T01:31:55.739Z,9.941101
2019-03-17T01:32:07.485Z,9.961243
2019-03-17T01:32:19.260Z,9.941101
2019-03-17T01:32:31.001Z,9.941101
2019-03-17T01:32:42.797Z,9.93103
2019-03-17T01:32:54.578Z,9.941101
2019-03-17T01:33:06.343Z,9.941101
2019-03-17T01:33:18.123Z,9.910889
2019-03-17T01:33:29.878Z,9.941101
2019-03-17T01:33:41.644Z,9.93103
2019-03-17T01:33:53.394Z,9.941101
2019-03-17T01:34:05.152Z,9.941101
2019-03-17T01:34:16.890Z,9.941101
2019-03-17T01:34:28.652Z,9.941101
2019-03-17T01:34:40.403Z,9.941101
2019-03-17T01:34:52.150Z,9.941101
2019-03-17T01:35:09.382Z,9.941101
2019-03-17T01:35:16.606Z,9.941101
2019-03-17T01:35:28.382Z,9.941101
2019-03-17T01:35:40.149Z,9.941101
2019-03-17T01:35:51.932Z,9.961243
2019-03-17T01:36:03.755Z,9.961243
2019-03-17T01:36:15.486Z,9.961243
2019-03-17T01:36:27.254Z,9.941101
2019-03-17T01:36:39.010Z,9.961243
2019-03-17T01:36:50.791Z,9.961243
2019-03-17T01:37:02.541Z,9.971313
2019-03-17T01:37:14.306Z,9.971313
2019-03-17T01:37:26.068Z,9.971313
2019-03-17T01:37:37.835Z,9.961243
2019-03-17T01:37:49.590Z,9.971313
2019-03-17T01:38:01.331Z,9.971313
2019-03-17T01:38:13.103Z,9.971313
2019-03-17T01:38:24.858Z,9.971313
2019-03-17T01:38:36.636Z,9.971313
2019-03-17T01:38:48.423Z,9.971313
2019-03-17T01:39:00.180Z,9.991455
2019-03-17T01:39:11.985Z,9.971313
2019-03-17T01:39:23.758Z,9.971313
2019-03-17T01:39:35.516Z,9.991455
2019-03-17T01:39:47.291Z,9.991455
2019-03-17T01:39:59.074Z,9.971313
2019-03-17T01:40:10.849Z,9.971313
2019-03-17T01:40:22.593Z,9.991455
2019-03-17T01:40:34.366Z,9.991455
2019-03-17T01:40:46.136Z,9.991455
2019-03-17T01:40:58.051Z,9.971313
2019-03-17T01:41:09.825Z,9.971313
2019-03-17T01:41:21.596Z,9.971313
2019-03-17T01:41:33.364Z,9.971313
2019-03-17T01:41:45.142Z,9.961243
2019-03-17T01:41:56.893Z,9.971313
2019-03-17T01:42:08.655Z,9.961243
2019-03-17T01:42:20.392Z,9.961243
2019-03-17T01:42:32.170Z,9.961243
2019-03-17T01:42:43.914Z,9.961243
2019-03-17T01:42:55.668Z,9.961243
2019-03-17T01:43:07.465Z,9.961243
2019-03-17T01:43:19.284Z,9.961243
2019-03-17T01:43:30.995Z,9.961243
2019-03-17T01:43:42.801Z,9.971313
2019-03-17T01:43:54.557Z,9.961243
2019-03-17T01:44:06.309Z,9.941101
2019-03-17T01:44:18.060Z,9.961243
2019-03-17T01:44:29.827Z,9.971313
2019-03-17T01:44:41.581Z,9.961243
2019-03-17T01:44:53.335Z,9.941101
2019-03-17T01:45:05.102Z,9.961243
2019-03-17T01:45:16.871Z,9.961243
2019-03-17T01:45:28.610Z,9.941101
2019-03-17T01:45:40.366Z,9.941101
2019-03-17T01:45:52.124Z,9.93103
2019-03-17T01:46:03.900Z,9.93103
2019-03-17T01:46:15.655Z,9.93103
2019-03-17T01:46:27.415Z,9.93103
2019-03-17T01:46:39.226Z,9.93103
2019-03-17T01:46:51.013Z,9.93103
2019-03-17T01:47:02.757Z,9.910889
2019-03-17T01:47:14.530Z,9.890747
2019-03-17T01:47:27.816Z,9.890747
2019-03-17T01:47:39.067Z,9.890747
2019-03-17T01:47:50.814Z,9.910889
2019-03-17T01:48:02.566Z,9.910889
2019-03-17T01:48:14.342Z,9.890747
2019-03-17T01:48:26.095Z,9.890747
2019-03-17T01:48:37.860Z,9.910889
2019-03-17T01:48:49.631Z,9.910889
2019-03-17T01:49:01.395Z,9.910889
2019-03-17T01:49:13.139Z,9.93103
2019-03-17T01:49:24.910Z,9.93103
2019-03-17T01:49:36.663Z,9.93103
2019-03-17T01:49:48.431Z,9.93103
2019-03-17T01:50:00.272Z,9.941101
2019-03-17T01:50:11.939Z,9.93103
2019-03-17T01:50:23.703Z,9.941101
2019-03-17T01:50:35.500Z,9.93103
2019-03-17T01:50:47.248Z,9.93103
2019-03-17T01:50:59.016Z,9.93103
2019-03-17T01:51:10.804Z,9.93103
2019-03-17T01:51:22.573Z,9.941101
2019-03-17T01:51:34.398Z,9.93103
2019-03-17T01:51:46.136Z,9.941101
2019-03-17T01:51:57.891Z,9.93103
2019-03-17T01:52:09.699Z,9.93103
2019-03-17T01:52:21.483Z,9.941101
2019-03-17T01:52:33.251Z,9.93103
2019-03-17T01:52:45.036Z,9.93103
2019-03-17T01:52:56.798Z,9.93103
2019-03-17T01:53:08.540Z,9.910889
2019-03-17T01:53:20.348Z,9.910889
2019-03-17T01:53:32.065Z,9.890747
2019-03-17T01:53:43.832Z,9.910889
2019-03-17T01:53:55.617Z,9.910889
2019-03-17T01:54:07.402Z,9.910889
2019-03-17T01:54:19.148Z,9.890747
2019-03-17T01:54:30.900Z,9.890747
2019-03-17T01:54:42.650Z,9.880676
2019-03-17T01:54:54.416Z,9.880676
2019-03-17T01:55:06.189Z,9.880676
2019-03-17T01:55:17.949Z,9.880676
2019-03-17T01:55:29.712Z,9.880676
2019-03-17T01:55:41.481Z,9.880676
2019-03-17T01:55:53.258Z,9.880676
2019-03-17T01:56:05.005Z,9.890747
2019-03-17T01:56:16.769Z,9.880676
2019-03-17T01:56:28.521Z,9.890747
2019-03-17T01:56:40.272Z,9.880676
2019-03-17T01:56:52.023Z,9.880676
2019-03-17T01:57:03.785Z,9.860535
2019-03-17T01:57:15.619Z,9.880676
2019-03-17T01:57:27.391Z,9.860535
2019-03-17T01:57:39.169Z,9.880676
2019-03-17T01:57:50.930Z,9.860535
2019-03-17T01:58:02.687Z,9.880676
2019-03-17T01:58:14.430Z,9.860535
2019-03-17T01:58:26.233Z,9.860535
2019-03-17T01:58:38.001Z,9.850464
2019-03-17T01:58:49.772Z,9.850464
2019-03-17T01:59:01.528Z,9.850464
2019-03-17T01:59:13.333Z,9.860535
2019-03-17T01:59:25.090Z,9.850464
2019-03-17T01:59:36.844Z,9.850464
2019-03-17T01:59:48.597Z,9.850464
2019-03-17T02:00:00.359Z,9.860535
2019-03-17T02:00:12.096Z,9.850464
2019-03-17T02:00:23.869Z,9.850464
2019-03-17T02:00:35.613Z,9.850464
2019-03-17T02:00:47.354Z,9.860535
2019-03-17T02:00:59.120Z,9.860535
2019-03-17T02:01:12.116Z,9.860535
2019-03-17T02:01:23.653Z,9.860535
2019-03-17T02:01:35.408Z,9.860535
2019-03-17T02:01:47.188Z,9.880676
2019-03-17T02:01:58.963Z,9.860535
2019-03-17T02:02:10.853Z,9.860535
2019-03-17T02:02:22.622Z,9.880676
2019-03-17T02:02:34.416Z,9.880676
2019-03-17T02:02:46.198Z,9.860535
2019-03-17T02:02:57.980Z,9.860535
2019-03-17T02:03:09.728Z,9.860535
2019-03-17T02:03:21.530Z,9.860535
2019-03-17T02:03:33.293Z,9.860535
2019-03-17T02:03:45.079Z,9.860535
2019-03-17T02:03:56.850Z,9.860535
2019-03-17T02:04:08.618Z,9.860535
2019-03-17T02:04:20.374Z,9.850464
2019-03-17T02:04:32.170Z,9.880676
2019-03-17T02:04:43.990Z,9.860535
2019-03-17T02:04:55.754Z,9.860535
2019-03-17T02:05:07.521Z,9.860535
2019-03-17T02:05:22.186Z,9.850464
2019-03-17T02:05:31.966Z,9.860535
2019-03-17T02:05:43.726Z,9.850464
2019-03-17T02:05:55.510Z,9.860535
2019-03-17T02:06:07.257Z,9.850464
2019-03-17T02:06:19.005Z,9.850464
2019-03-17T02:06:30.780Z,9.850464
2019-03-17T02:06:42.557Z,9.830322
2019-03-17T02:06:54.330Z,9.830322
2019-03-17T02:07:06.077Z,9.850464
2019-03-17T02:07:17.868Z,9.820251
2019-03-17T02:07:29.631Z,9.820251
2019-03-17T02:07:41.419Z,9.820251
2019-03-17T02:07:53.196Z,9.820251
2019-03-17T02:08:04.977Z,9.820251
2019-03-17T02:08:16.710Z,9.810181
2019-03-17T02:08:28.509Z,9.810181
2019-03-17T02:08:40.258Z,9.820251
2019-03-17T02:08:52.034Z,9.810181
2019-03-17T02:09:03.825Z,9.810181
2019-03-17T02:09:15.618Z,9.810181
2019-03-17T02:09:27.368Z,9.810181
2019-03-17T02:09:39.134Z,9.790039
2019-03-17T02:09:50.902Z,9.790039
2019-03-17T02:10:02.668Z,9.790039
2019-03-17T02:10:14.434Z,9.790039
2019-03-17T02:10:26.235Z,9.790039
2019-03-17T02:10:38.067Z,9.790039
2019-03-17T02:10:49.848Z,9.779968
2019-03-17T02:11:01.585Z,9.779968
2019-03-17T02:11:13.371Z,9.759827
2019-03-17T02:11:25.147Z,9.779968
2019-03-17T02:11:36.884Z,9.759827
2019-03-17T02:11:48.645Z,9.779968
2019-03-17T02:12:00.415Z,9.759827
2019-03-17T02:12:12.227Z,9.779968
2019-03-17T02:12:24.004Z,9.779968
2019-03-17T02:12:35.773Z,9.779968
2019-03-17T02:12:47.549Z,9.759827
2019-03-17T02:12:59.345Z,9.779968
2019-03-17T02:13:11.117Z,9.779968
2019-03-17T02:13:22.896Z,9.779968
2019-03-17T02:13:34.647Z,9.779968
2019-03-17T02:13:46.412Z,9.759827
2019-03-17T02:13:58.180Z,9.779968
2019-03-17T02:14:09.945Z,9.759827
2019-03-17T02:14:21.717Z,9.759827
2019-03-17T02:14:33.462Z,9.779968
2019-03-17T02:14:45.233Z,9.749756
2019-03-17T02:14:56.996Z,9.759827
2019-03-17T02:15:08.747Z,9.749756
2019-03-17T02:15:20.516Z,9.749756
2019-03-17T02:15:32.302Z,9.759827
2019-03-17T02:15:44.077Z,9.749756
2019-03-17T02:15:55.850Z,9.749756
2019-03-17T02:16:07.661Z,9.759827
2019-03-17T02:16:19.428Z,9.749756
2019-03-17T02:16:31.185Z,9.749756
2019-03-17T02:16:42.938Z,9.759827